Time;durP1;ratioP1;P1;durP2;ratioP2;P2;SDS_P1;SDS_P2;PMS_P1;PMS_P2;Temp;Humidity;BMP_temperature;BMP_pressure;BME280_temperature;BME280_humidity;BME280_pressure;Samples;Min_cycle;Max_cycle;Signal;HPM_P1;HPM_P2
2024/03/20 00:02:04;;;;;;;8.60;3.55;;;11.50;99.90;;;;;;5015049;28;20017;-74
2024/03/20 00:04:30;;;;;;;9.15;3.35;;;11.50;99.90;;;;;;5012166;28;20187;-75
2024/03/20 00:06:56;;;;;;;8.80;3.58;;;11.50;99.90;;;;;;5018952;28;20033;-75
2024/03/20 00:09:22;;;;;;;8.93;3.60;;;11.40;99.90;;;;;;5019690;28;20021;-74
2024/03/20 00:11:47;;;;;;;9.38;3.30;;;11.40;99.90;;;;;;5012715;28;20023;-75
2024/03/20 00:14:14;;;;;;;8.82;3.53;;;11.40;99.90;;;;;;5025817;28;20391;-75
2024/03/20 00:16:42;;;;;;;9.10;3.60;;;11.40;99.90;;;;;;5022326;28;20497;-75
2024/03/20 00:19:08;;;;;;;8.68;3.38;;;11.40;99.90;;;;;;5014575;28;20027;-75
2024/03/20 00:21:34;;;;;;;8.38;3.70;;;11.40;99.90;;;;;;5025903;28;20414;-75
2024/03/20 00:24:00;;;;;;;6.10;2.88;;;11.40;99.90;;;;;;5025849;28;20083;-75
2024/03/20 00:26:26;;;;;;;8.98;3.20;;;11.40;99.90;;;;;;5011936;28;20480;-75
2024/03/20 00:28:52;;;;;;;8.30;3.42;;;11.30;99.90;;;;;;5022163;28;20045;-74
2024/03/20 00:31:18;;;;;;;6.13;3.60;;;11.30;99.90;;;;;;5029509;28;20501;-75
2024/03/20 00:33:43;;;;;;;7.40;3.55;;;11.30;99.90;;;;;;5025489;28;20052;-74
2024/03/20 00:36:09;;;;;;;9.30;3.75;;;11.30;99.90;;;;;;5026265;28;20033;-74
2024/03/20 00:38:35;;;;;;;8.55;3.53;;;11.30;99.90;;;;;;5013358;28;20103;-74
2024/03/20 00:41:00;;;;;;;9.25;4.10;;;11.30;99.90;;;;;;5033546;28;20026;-75
2024/03/20 00:43:26;;;;;;;9.05;4.07;;;11.30;99.90;;;;;;5015726;28;20448;-74
2024/03/20 00:45:51;;;;;;;8.85;3.97;;;11.20;99.90;;;;;;5023947;28;20116;-73
2024/03/20 00:48:17;;;;;;;10.05;4.32;;;11.20;99.90;;;;;;5013753;28;20053;-72
2024/03/20 00:50:43;;;;;;;9.18;4.38;;;11.20;99.90;;;;;;5011671;28;20715;-73
2024/03/20 00:53:08;;;;;;;9.90;4.07;;;11.20;99.90;;;;;;5019421;28;20721;-73
2024/03/20 00:55:35;;;;;;;9.88;4.15;;;11.20;99.90;;;;;;5017936;28;20029;-73
2024/03/20 00:58:00;;;;;;;8.52;4.03;;;11.20;99.90;;;;;;5011565;28;20021;-73
2024/03/20 01:00:26;;;;;;;9.77;4.60;;;11.20;99.90;;;;;;5015340;28;20427;-73
2024/03/20 01:02:53;;;;;;;8.20;4.10;;;11.10;99.90;;;;;;5021925;28;20041;-74
2024/03/20 01:05:19;;;;;;;8.65;4.50;;;11.20;99.90;;;;;;5025500;28;20029;-74
2024/03/20 01:07:45;;;;;;;9.60;4.78;;;11.20;99.90;;;;;;5025783;28;20095;-74
2024/03/20 01:10:10;;;;;;;9.73;4.40;;;11.10;99.90;;;;;;5021576;28;20386;-73
2024/03/20 01:12:36;;;;;;;9.55;4.20;;;11.10;99.90;;;;;;5021797;28;20032;-73
2024/03/20 01:15:03;;;;;;;8.10;3.75;;;11.10;99.90;;;;;;5015567;28;20021;-74
2024/03/20 01:17:29;;;;;;;10.70;4.97;;;11.10;99.90;;;;;;5018988;28;20054;-74
2024/03/20 01:19:55;;;;;;;7.90;4.68;;;11.10;99.90;;;;;;5025634;28;20474;-73
2024/03/20 01:22:21;;;;;;;10.05;4.63;;;11.00;99.90;;;;;;5029074;28;20026;-74
2024/03/20 01:24:46;;;;;;;8.05;4.25;;;11.00;99.90;;;;;;5015271;28;20026;-74
2024/03/20 01:27:12;;;;;;;8.00;4.60;;;11.00;99.90;;;;;;5022964;28;20494;-73
2024/03/20 01:29:38;;;;;;;11.50;4.75;;;11.00;99.90;;;;;;5012628;28;20024;-74
2024/03/20 01:32:04;;;;;;;10.00;4.63;;;11.00;99.90;;;;;;5023961;28;20027;-74
2024/03/20 01:34:29;;;;;;;8.88;4.45;;;11.00;99.90;;;;;;5027169;28;20021;-74
2024/03/20 01:36:55;;;;;;;10.13;4.68;;;10.90;99.90;;;;;;5015358;28;20160;-74
2024/03/20 01:39:21;;;;;;;10.60;4.85;;;10.90;99.90;;;;;;5026991;28;20575;-74
2024/03/20 01:41:46;;;;;;;8.63;4.97;;;10.90;99.90;;;;;;5029173;28;20038;-74
2024/03/20 01:44:12;;;;;;;12.40;5.35;;;10.90;99.90;;;;;;5027258;28;20064;-75
2024/03/20 01:46:40;;;;;;;11.90;5.00;;;10.90;99.90;;;;;;5023423;28;20044;-74
2024/03/20 01:49:06;;;;;;;9.32;4.70;;;10.90;99.90;;;;;;5022520;28;20025;-74
2024/03/20 01:51:33;;;;;;;12.20;5.20;;;10.90;99.90;;;;;;5015967;28;20029;-74
2024/03/20 01:53:59;;;;;;;11.40;4.30;;;10.90;99.90;;;;;;5028572;28;20041;-74
2024/03/20 01:56:25;;;;;;;10.55;4.95;;;10.90;99.90;;;;;;5022347;28;20468;-74
2024/03/20 01:58:53;;;;;;;9.02;4.85;;;10.80;99.90;;;;;;5018267;28;20033;-74
2024/03/20 02:01:19;;;;;;;11.30;4.78;;;10.80;99.90;;;;;;5025479;28;20461;-74
2024/03/20 02:03:45;;;;;;;8.85;4.80;;;10.70;99.90;;;;;;5017638;28;20108;-74
2024/03/20 02:06:21;;;;;;;9.60;4.35;;;10.70;99.90;;;;;;5028383;28;20037;-74
2024/03/20 02:08:48;;;;;;;8.30;5.10;;;10.70;99.90;;;;;;5019449;28;20450;-74
2024/03/20 02:11:14;;;;;;;9.90;4.93;;;10.70;99.90;;;;;;5022009;28;20491;-74
2024/03/20 02:13:46;;;;;;;12.13;5.25;;;10.70;99.90;;;;;;5027781;28;20486;-74
2024/03/20 02:16:13;;;;;;;10.88;5.00;;;10.70;99.90;;;;;;5015305;28;20033;-74
2024/03/20 02:18:38;;;;;;;12.98;4.50;;;10.70;99.90;;;;;;5014203;28;20049;-74
2024/03/20 02:21:06;;;;;;;10.40;5.05;;;10.60;99.90;;;;;;5020618;28;20078;-74
2024/03/20 02:23:31;;;;;;;8.48;4.80;;;10.60;99.90;;;;;;5023661;28;20029;-74
2024/03/20 02:25:57;;;;;;;8.93;4.68;;;10.60;99.90;;;;;;5018701;28;20555;-74
2024/03/20 02:28:23;;;;;;;9.63;4.78;;;10.60;99.90;;;;;;5013835;28;20041;-74
2024/03/20 02:30:49;;;;;;;7.80;4.38;;;10.60;99.90;;;;;;5014197;28;20390;-74
2024/03/20 02:33:14;;;;;;;9.55;5.18;;;10.60;99.90;;;;;;5018321;28;20052;-74
2024/03/20 02:35:40;;;;;;;10.90;5.40;;;10.60;99.90;;;;;;5023664;28;20557;-74
2024/03/20 02:38:06;;;;;;;8.55;4.30;;;10.50;99.90;;;;;;5028059;28;20039;-74
2024/03/20 02:40:32;;;;;;;8.57;4.72;;;10.50;99.90;;;;;;5013808;28;20292;-73
2024/03/20 02:42:57;;;;;;;8.73;4.95;;;10.50;99.90;;;;;;5028208;28;20060;-73
2024/03/20 02:45:23;;;;;;;10.55;4.63;;;10.50;99.90;;;;;;5027086;28;20567;-73
2024/03/20 02:47:49;;;;;;;14.02;5.57;;;10.50;99.90;;;;;;5023877;28;20680;-73
2024/03/20 02:50:14;;;;;;;8.77;4.57;;;10.50;99.90;;;;;;5018164;28;20026;-74
2024/03/20 02:52:40;;;;;;;9.82;5.00;;;10.50;99.90;;;;;;5013477;28;20018;-73
2024/03/20 02:55:06;;;;;;;8.18;5.00;;;10.40;99.90;;;;;;5019491;28;20499;-74
2024/03/20 02:57:32;;;;;;;9.32;4.53;;;10.40;99.90;;;;;;5021904;28;20061;-73
2024/03/20 02:59:57;;;;;;;10.85;5.20;;;10.40;99.90;;;;;;5021318;28;20552;-74
2024/03/20 03:02:23;;;;;;;9.38;4.75;;;10.40;99.90;;;;;;5019835;28;20478;-74
2024/03/20 03:04:49;;;;;;;8.30;4.70;;;10.40;99.90;;;;;;5023135;28;20025;-74
2024/03/20 03:07:15;;;;;;;10.05;5.03;;;10.40;99.90;;;;;;5016545;28;20144;-74
2024/03/20 03:09:41;;;;;;;11.68;5.18;;;10.30;99.90;;;;;;5013100;28;20109;-74
2024/03/20 03:12:07;;;;;;;10.55;4.63;;;10.30;99.90;;;;;;5027386;28;20479;-74
2024/03/20 03:14:33;;;;;;;9.10;5.30;;;10.30;99.90;;;;;;5025070;28;20482;-74
2024/03/20 03:16:58;;;;;;;7.57;5.07;;;10.30;99.90;;;;;;5013664;28;20051;-74
2024/03/20 03:19:24;;;;;;;9.57;5.15;;;10.30;99.90;;;;;;5014771;28;20118;-74
2024/03/20 03:21:50;;;;;;;8.32;4.72;;;10.30;99.90;;;;;;5025605;28;20443;-74
2024/03/20 03:24:16;;;;;;;9.82;5.25;;;10.30;99.90;;;;;;5026958;28;20061;-74
2024/03/20 03:26:42;;;;;;;9.95;4.97;;;10.20;99.90;;;;;;5013244;28;20073;-74
2024/03/20 03:29:07;;;;;;;8.73;4.78;;;10.30;99.90;;;;;;5022769;28;20020;-74
2024/03/20 03:31:36;;;;;;;10.23;5.35;;;10.30;99.90;;;;;;5016043;28;20038;-74
2024/03/20 03:34:02;;;;;;;11.35;5.60;;;10.30;99.90;;;;;;5022980;28;20022;-74
2024/03/20 03:36:27;;;;;;;10.73;5.35;;;10.30;99.90;;;;;;5016984;28;20018;-74
2024/03/20 03:38:53;;;;;;;11.93;5.47;;;10.30;99.90;;;;;;5021462;28;20102;-74
2024/03/20 03:41:19;;;;;;;9.40;5.30;;;10.30;99.90;;;;;;5027048;28;20031;-74
2024/03/20 03:43:46;;;;;;;12.02;5.78;;;10.30;99.90;;;;;;5026364;28;20033;-74
2024/03/20 03:46:12;;;;;;;11.57;5.57;;;10.30;99.90;;;;;;5013025;28;20021;-75
2024/03/20 03:48:38;;;;;;;8.82;5.72;;;10.30;99.90;;;;;;5015641;28;20073;-74
2024/03/20 03:51:05;;;;;;;13.15;6.00;;;10.30;99.90;;;;;;5020928;28;20033;-74
2024/03/20 03:53:30;;;;;;;10.88;5.57;;;10.30;99.90;;;;;;5015768;28;20032;-75
2024/03/20 03:55:56;;;;;;;11.68;5.50;;;10.30;99.90;;;;;;5010847;28;20022;-75
2024/03/20 03:58:22;;;;;;;11.25;5.25;;;10.30;99.90;;;;;;5019189;28;20022;-75
2024/03/20 04:00:47;;;;;;;9.32;5.40;;;10.30;99.90;;;;;;5019676;28;20434;-75
2024/03/20 04:03:13;;;;;;;10.23;5.13;;;10.30;99.90;;;;;;5012384;28;20040;-75
2024/03/20 04:05:39;;;;;;;14.40;5.10;;;10.20;99.90;;;;;;5025436;28;20029;-75
2024/03/20 04:08:04;;;;;;;12.55;5.63;;;10.20;99.90;;;;;;5023470;28;20022;-75
2024/03/20 04:10:30;;;;;;;9.95;5.45;;;10.20;99.90;;;;;;5014925;28;20033;-75
2024/03/20 04:12:56;;;;;;;10.88;5.55;;;10.20;99.90;;;;;;5026247;28;20112;-75
2024/03/20 04:15:22;;;;;;;9.18;5.03;;;10.20;99.90;;;;;;5025850;28;20075;-75
2024/03/20 04:17:48;;;;;;;9.82;5.25;;;10.20;99.90;;;;;;5013419;28;20050;-74
2024/03/20 04:20:14;;;;;;;8.73;5.60;;;10.10;99.90;;;;;;5024694;28;20490;-74
2024/03/20 04:22:42;;;;;;;11.40;5.53;;;10.10;99.90;;;;;;5026053;28;20490;-74
2024/03/20 04:25:08;;;;;;;11.80;5.57;;;10.10;99.90;;;;;;5011921;28;20025;-74
2024/03/20 04:27:37;;;;;;;11.00;6.20;;;10.10;99.90;;;;;;5026199;28;20033;-75
2024/03/20 04:30:06;;;;;;;9.68;5.50;;;10.10;99.90;;;;;;5013999;28;20014;-74
2024/03/20 04:32:32;;;;;;;11.57;5.15;;;10.10;99.90;;;;;;5019986;28;20432;-75
2024/03/20 04:34:57;;;;;;;10.88;5.75;;;10.10;99.90;;;;;;5016080;28;20022;-74
2024/03/20 04:37:23;;;;;;;8.65;5.43;;;10.00;99.90;;;;;;5025958;28;20033;-74
2024/03/20 04:39:49;;;;;;;12.68;5.75;;;10.00;99.90;;;;;;5025491;28;20072;-74
2024/03/20 04:42:14;;;;;;;12.85;6.03;;;10.00;99.90;;;;;;5025484;28;20072;-73
2024/03/20 04:44:40;;;;;;;13.07;5.88;;;10.00;99.90;;;;;;5011855;28;20156;-74
2024/03/20 04:47:06;;;;;;;10.68;6.10;;;10.00;99.90;;;;;;5012133;28;20107;-74
2024/03/20 04:49:33;;;;;;;13.93;6.32;;;10.00;99.90;;;;;;5019480;28;20025;-74
2024/03/20 04:51:59;;;;;;;9.35;5.45;;;10.00;99.90;;;;;;5016461;28;20053;-74
2024/03/20 04:54:24;;;;;;;10.23;5.53;;;9.90;99.90;;;;;;5022657;28;20018;-74
2024/03/20 04:56:50;;;;;;;7.70;5.47;;;9.90;99.90;;;;;;5015740;28;20116;-74
2024/03/20 04:59:15;;;;;;;11.30;6.18;;;9.90;99.90;;;;;;5025745;28;20433;-74
2024/03/20 05:01:41;;;;;;;10.30;5.60;;;9.90;99.90;;;;;;5027555;28;20030;-74
2024/03/20 05:04:07;;;;;;;9.73;5.55;;;9.90;99.90;;;;;;5025368;28;20071;-75
2024/03/20 05:06:32;;;;;;;11.98;5.32;;;9.80;99.90;;;;;;5011438;28;20035;-74
2024/03/20 05:08:58;;;;;;;11.32;5.60;;;9.80;99.90;;;;;;5015173;28;20022;-74
2024/03/20 05:11:24;;;;;;;12.95;6.22;;;9.80;99.90;;;;;;5020377;28;20030;-75
2024/03/20 05:13:49;;;;;;;13.18;5.80;;;9.80;99.90;;;;;;5019169;28;20526;-74
2024/03/20 05:16:15;;;;;;;11.48;6.13;;;9.80;99.90;;;;;;5019269;28;20132;-75
2024/03/20 05:18:41;;;;;;;12.70;5.70;;;9.80;99.90;;;;;;5012185;28;20028;-74
2024/03/20 05:21:06;;;;;;;9.10;5.72;;;9.70;99.90;;;;;;5017811;28;20025;-74
2024/03/20 05:23:32;;;;;;;9.05;5.55;;;9.70;99.90;;;;;;5021175;28;20026;-75
2024/03/20 05:25:58;;;;;;;16.30;6.43;;;9.70;99.90;;;;;;5015446;28;20034;-74
2024/03/20 05:28:24;;;;;;;9.65;5.57;;;9.70;99.90;;;;;;5023920;28;20025;-74
2024/03/20 05:30:50;;;;;;;9.20;5.97;;;9.70;99.90;;;;;;5024945;28;20056;-74
2024/03/20 05:33:17;;;;;;;10.07;5.63;;;9.70;99.90;;;;;;5025773;28;20045;-74
2024/03/20 05:35:43;;;;;;;10.55;6.10;;;9.60;99.90;;;;;;5024773;28;20033;-74
2024/03/20 05:38:09;;;;;;;10.40;5.88;;;9.60;99.90;;;;;;5025626;28;20024;-75
2024/03/20 05:40:35;;;;;;;12.18;6.10;;;9.60;99.90;;;;;;5023289;28;20514;-74
2024/03/20 05:43:01;;;;;;;10.35;5.88;;;9.60;99.90;;;;;;5010999;28;20021;-74
2024/03/20 05:45:27;;;;;;;12.10;6.03;;;9.60;99.90;;;;;;5024749;28;20398;-75
2024/03/20 05:47:53;;;;;;;11.43;6.32;;;9.60;99.90;;;;;;5019369;28;20022;-74
2024/03/20 05:50:18;;;;;;;11.88;5.97;;;9.60;99.90;;;;;;5015804;28;20024;-75
2024/03/20 05:52:44;;;;;;;10.82;5.78;;;9.60;99.90;;;;;;5025293;28;20033;-75
2024/03/20 05:55:12;;;;;;;10.30;6.10;;;9.60;99.90;;;;;;5021277;28;20698;-74
2024/03/20 05:57:37;;;;;;;10.52;5.82;;;9.60;99.90;;;;;;5014903;28;20033;-75
2024/03/20 06:00:04;;;;;;;10.00;5.90;;;9.60;99.90;;;;;;5021885;28;20018;-74
2024/03/20 06:02:29;;;;;;;14.65;5.95;;;9.60;99.90;;;;;;5030032;28;20120;-75
2024/03/20 06:04:55;;;;;;;9.68;5.88;;;9.60;99.90;;;;;;5028111;28;20152;-75
2024/03/20 06:07:20;;;;;;;8.63;5.95;;;9.60;99.90;;;;;;5016531;28;20080;-74
2024/03/20 06:09:46;;;;;;;10.90;5.47;;;9.60;99.90;;;;;;5022460;28;20499;-75
2024/03/20 06:12:12;;;;;;;10.35;5.43;;;9.60;99.90;;;;;;5017532;28;20486;-75
2024/03/20 06:14:37;;;;;;;9.50;5.60;;;9.60;99.90;;;;;;5014160;28;20025;-75
2024/03/20 06:17:04;;;;;;;10.23;5.30;;;9.60;99.90;;;;;;5021617;28;20038;-74
2024/03/20 06:19:30;;;;;;;12.68;5.70;;;9.60;99.90;;;;;;5019875;28;20085;-74
2024/03/20 06:21:55;;;;;;;8.57;5.60;;;9.60;99.90;;;;;;5020645;28;20029;-74
2024/03/20 06:24:21;;;;;;;9.50;6.22;;;9.60;99.90;;;;;;5016930;28;20030;-75
2024/03/20 06:26:47;;;;;;;10.90;5.88;;;9.70;99.90;;;;;;5020786;28;20510;-75
2024/03/20 06:29:12;;;;;;;9.95;5.82;;;9.70;99.90;;;;;;5012008;28;20026;-74
2024/03/20 06:31:38;;;;;;;11.95;6.30;;;9.70;99.90;;;;;;5019502;28;20025;-75
2024/03/20 06:34:04;;;;;;;14.00;6.30;;;9.70;99.90;;;;;;5014396;28;20032;-75
2024/03/20 06:36:30;;;;;;;9.52;5.03;;;9.80;99.90;;;;;;5023493;28;20355;-74
2024/03/20 06:38:55;;;;;;;11.25;5.72;;;9.80;99.90;;;;;;5027933;28;20306;-75
2024/03/20 06:41:21;;;;;;;9.80;5.22;;;9.80;99.90;;;;;;5027231;28;20095;-74
2024/03/20 06:43:50;;;;;;;12.05;6.45;;;9.80;99.90;;;;;;5028572;28;20047;-75
2024/03/20 06:46:19;;;;;;;9.82;5.38;;;9.90;99.90;;;;;;5027232;28;20099;-75
2024/03/20 06:48:46;;;;;;;9.00;5.28;;;9.90;99.90;;;;;;5026590;28;20033;-75
2024/03/20 06:51:15;;;;;;;10.25;5.32;;;10.00;99.90;;;;;;5025070;28;20477;-74
2024/03/20 06:53:41;;;;;;;8.15;5.65;;;10.00;99.90;;;;;;5019761;28;20058;-75
2024/03/20 06:56:07;;;;;;;11.30;6.20;;;10.00;99.90;;;;;;5023685;28;20022;-74
2024/03/20 06:58:33;;;;;;;10.68;5.65;;;10.00;99.90;;;;;;5023655;28;20490;-75
2024/03/20 07:00:58;;;;;;;10.73;6.22;;;10.10;99.90;;;;;;5027090;28;20136;-75
2024/03/20 07:03:24;;;;;;;8.45;5.65;;;10.10;99.90;;;;;;5025664;28;20112;-75
2024/03/20 07:05:51;;;;;;;8.10;5.10;;;10.20;99.90;;;;;;5025682;28;20032;-75
2024/03/20 07:08:17;;;;;;;10.07;5.00;;;10.20;99.90;;;;;;5016404;28;20022;-75
2024/03/20 07:10:45;;;;;;;7.78;4.75;;;10.20;99.90;;;;;;5020947;28;20056;-75
2024/03/20 07:13:11;;;;;;;8.95;5.22;;;10.30;99.90;;;;;;5018093;28;20026;-75
2024/03/20 07:15:36;;;;;;;8.30;4.63;;;10.30;99.90;;;;;;5020712;28;20040;-75
2024/03/20 07:18:03;;;;;;;10.32;5.28;;;10.30;99.90;;;;;;5013535;28;20415;-75
2024/03/20 07:20:29;;;;;;;10.38;5.60;;;10.30;99.90;;;;;;5021711;28;20128;-75
2024/03/20 07:22:57;;;;;;;7.95;5.07;;;10.40;99.90;;;;;;5027243;28;20508;-74
2024/03/20 07:25:26;;;;;;;10.65;5.60;;;10.40;99.90;;;;;;5026275;28;20059;-75
2024/03/20 07:27:55;;;;;;;10.25;5.63;;;10.40;99.90;;;;;;5015604;28;20057;-74
2024/03/20 07:30:21;;;;;;;11.13;6.57;;;10.50;99.90;;;;;;5018763;28;20034;-75
2024/03/20 07:32:47;;;;;;;16.08;7.05;;;10.60;99.90;;;;;;5027206;28;20028;-75
2024/03/20 07:35:13;;;;;;;11.63;7.35;;;10.60;99.90;;;;;;5019454;28;20046;-74
2024/03/20 07:37:39;;;;;;;12.98;7.63;;;10.70;99.90;;;;;;5013852;28;20566;-74
2024/03/20 07:40:07;;;;;;;16.80;6.97;;;10.80;99.90;;;;;;5022088;28;20037;-74
2024/03/20 07:42:34;;;;;;;12.43;7.32;;;10.90;99.90;;;;;;5018689;28;20647;-73
2024/03/20 07:44:59;;;;;;;14.75;7.95;;;11.00;99.90;;;;;;5013949;28;20077;-74
2024/03/20 07:47:25;;;;;;;11.93;7.55;;;11.10;99.90;;;;;;5013368;28;20033;-73
2024/03/20 07:49:52;;;;;;;10.98;6.88;;;11.20;99.90;;;;;;5018082;28;20439;-74
2024/03/20 07:52:17;;;;;;;15.43;8.32;;;11.20;99.90;;;;;;5019946;28;20030;-74
2024/03/20 07:54:43;;;;;;;13.38;7.95;;;11.20;99.90;;;;;;5011964;28;20083;-73
2024/03/20 07:57:09;;;;;;;11.82;8.20;;;11.30;99.90;;;;;;5016835;28;20120;-73
2024/03/20 07:59:35;;;;;;;13.68;8.05;;;11.40;99.90;;;;;;5022990;28;20022;-74
2024/03/20 08:02:01;;;;;;;15.05;8.43;;;11.40;99.90;;;;;;5015301;28;20016;-73
2024/03/20 08:04:27;;;;;;;14.85;9.20;;;11.50;99.90;;;;;;5012466;28;20456;-74
2024/03/20 08:06:53;;;;;;;14.25;7.53;;;11.60;99.90;;;;;;5026159;28;20033;-72
2024/03/20 08:09:19;;;;;;;16.58;9.45;;;11.70;99.90;;;;;;5014074;28;20096;-74
2024/03/20 08:11:45;;;;;;;16.15;9.27;;;11.70;99.90;;;;;;5026229;28;20029;-73
2024/03/20 08:14:13;;;;;;;17.90;9.20;;;11.80;99.90;;;;;;5028248;28;20048;-73
2024/03/20 08:16:40;;;;;;;16.35;9.02;;;11.90;99.90;;;;;;5021842;28;20624;-74
2024/03/20 08:19:06;;;;;;;17.08;9.43;;;11.90;99.90;;;;;;5015814;28;20121;-73
2024/03/20 08:21:33;;;;;;;14.40;8.82;;;12.00;99.90;;;;;;5025114;28;20026;-73
2024/03/20 08:23:59;;;;;;;13.32;9.10;;;12.10;99.90;;;;;;5025827;28;20105;-73
2024/03/20 08:26:25;;;;;;;17.33;9.63;;;12.10;99.90;;;;;;5025456;28;20025;-73
2024/03/20 08:28:51;;;;;;;14.73;9.48;;;12.20;99.90;;;;;;5012194;28;20385;-73
2024/03/20 08:31:17;;;;;;;12.68;9.50;;;12.30;99.90;;;;;;5026053;28;20034;-73
2024/03/20 08:33:44;;;;;;;15.05;9.98;;;12.30;99.90;;;;;;5025962;28;20063;-73
2024/03/20 08:36:10;;;;;;;13.68;8.55;;;12.40;99.90;;;;;;5027234;28;20131;-73
2024/03/20 08:38:36;;;;;;;16.58;9.38;;;12.40;99.90;;;;;;5015395;28;20542;-74
2024/03/20 08:41:05;;;;;;;15.80;10.20;;;12.50;99.90;;;;;;5019660;28;20368;-73
2024/03/20 08:43:34;;;;;;;16.63;11.50;;;12.60;99.90;;;;;;5018243;28;20025;-73
2024/03/20 08:46:08;;;;;;;18.70;12.05;;;12.60;99.90;;;;;;5027032;28;20018;-74
2024/03/20 08:48:37;;;;;;;18.33;11.13;;;12.70;99.90;;;;;;5017190;28;20038;-73
2024/03/20 08:51:03;;;;;;;15.75;9.80;;;12.80;99.90;;;;;;5020169;28;20021;-73
2024/03/20 08:53:31;;;;;;;18.27;11.38;;;12.90;99.90;;;;;;5015898;28;20025;-74
2024/03/20 08:55:57;;;;;;;17.20;10.55;;;13.00;99.90;;;;;;5035331;28;20040;-73
2024/03/20 08:58:23;;;;;;;20.05;12.23;;;13.10;99.90;;;;;;5013859;28;20039;-73
2024/03/20 09:00:49;;;;;;;17.70;11.98;;;13.20;99.90;;;;;;5025645;28;20034;-74
2024/03/20 09:03:15;;;;;;;18.23;11.30;;;13.30;99.90;;;;;;5020929;28;20093;-74
2024/03/20 09:05:41;;;;;;;19.42;12.85;;;13.40;99.90;;;;;;5016840;28;20021;-73
2024/03/20 09:08:10;;;;;;;17.23;11.07;;;13.40;99.90;;;;;;5012358;28;20014;-73
2024/03/20 09:10:36;;;;;;;16.85;10.75;;;13.50;99.90;;;;;;5015756;28;20022;-73
2024/03/20 09:13:03;;;;;;;18.23;10.45;;;13.50;99.90;;;;;;5020282;28;20021;-73
2024/03/20 09:15:28;;;;;;;15.15;11.13;;;13.60;99.90;;;;;;5013484;28;20018;-74
2024/03/20 09:17:54;;;;;;;17.30;11.65;;;13.70;99.90;;;;;;5026036;28;20057;-74
2024/03/20 09:20:20;;;;;;;17.73;11.10;;;13.70;99.90;;;;;;5019887;28;20032;-73
2024/03/20 09:22:46;;;;;;;17.42;11.60;;;13.80;99.90;;;;;;5024089;28;20412;-73
2024/03/20 09:25:15;;;;;;;19.20;11.20;;;13.90;99.90;;;;;;5011729;28;20025;-73
2024/03/20 09:27:41;;;;;;;19.60;11.35;;;13.90;99.90;;;;;;5015575;28;20037;-73
2024/03/20 09:30:08;;;;;;;17.65;12.73;;;14.00;99.90;;;;;;5021730;28;20437;-74
2024/03/20 09:32:35;;;;;;;18.42;12.73;;;14.10;99.90;;;;;;5023523;28;20076;-73
2024/03/20 09:35:00;;;;;;;21.40;13.98;;;14.20;99.90;;;;;;5019833;28;20269;-74
2024/03/20 09:37:27;;;;;;;22.25;13.50;;;14.30;99.90;;;;;;5027784;28;20393;-74
2024/03/20 09:39:53;;;;;;;21.83;13.02;;;14.40;99.90;;;;;;5020196;28;20030;-74
2024/03/20 09:42:22;;;;;;;19.63;12.73;;;14.40;99.90;;;;;;5023830;28;20026;-74
2024/03/20 09:44:48;;;;;;;19.00;12.57;;;14.60;99.90;;;;;;5016965;28;20025;-73
2024/03/20 09:47:15;;;;;;;19.95;11.90;;;14.70;99.90;;;;;;5016414;28;20030;-74
2024/03/20 09:49:41;;;;;;;23.48;11.55;;;14.80;99.90;;;;;;5023604;28;20498;-74
2024/03/20 09:52:09;;;;;;;20.77;13.25;;;14.80;99.90;;;;;;5020695;28;20075;-74
2024/03/20 09:54:35;;;;;;;20.85;12.85;;;14.90;99.90;;;;;;5029134;28;20163;-74
2024/03/20 09:57:03;;;;;;;22.38;13.57;;;15.00;99.90;;;;;;5027438;28;20483;-73
2024/03/20 09:59:29;;;;;;;20.65;13.43;;;15.00;99.90;;;;;;5028454;28;20033;-73
2024/03/20 10:01:58;;;;;;;21.38;14.77;;;15.10;99.90;;;;;;5028357;28;20025;-73
2024/03/20 10:04:27;;;;;;;22.45;13.82;;;15.10;99.90;;;;;;5043618;28;20037;-73
2024/03/20 10:06:53;;;;;;;20.05;14.85;;;15.20;99.90;;;;;;5027361;28;20446;-74
2024/03/20 10:09:20;;;;;;;20.65;15.48;;;15.20;99.90;;;;;;5030915;28;20014;-74
2024/03/20 10:11:47;;;;;;;21.10;15.30;;;15.30;99.90;;;;;;5022160;28;20018;-74
2024/03/20 10:14:13;;;;;;;24.05;17.05;;;15.40;99.90;;;;;;5020490;28;20025;-74
2024/03/20 10:16:39;;;;;;;20.90;15.82;;;15.50;99.90;;;;;;5014059;28;20643;-74
2024/03/20 10:19:05;;;;;;;22.05;16.20;;;15.60;99.90;;;;;;5019124;28;20025;-74
2024/03/20 10:21:33;;;;;;;19.42;14.45;;;15.70;99.90;;;;;;5023150;28;20033;-74
2024/03/20 10:24:01;;;;;;;21.30;15.30;;;15.80;99.90;;;;;;5028722;28;20494;-74
2024/03/20 10:26:27;;;;;;;19.73;13.38;;;15.80;99.90;;;;;;5027102;28;20021;-74
2024/03/20 10:28:55;;;;;;;22.92;14.65;;;15.90;99.90;;;;;;5017187;28;20028;-74
2024/03/20 10:31:21;;;;;;;20.90;15.38;;;16.00;99.90;;;;;;5027002;28;20046;-74
2024/03/20 10:33:50;;;;;;;20.08;14.32;;;16.00;99.90;;;;;;5014279;28;20112;-74
2024/03/20 10:36:18;;;;;;;19.30;13.75;;;16.00;99.90;;;;;;5027711;28;20075;-74
2024/03/20 10:38:44;;;;;;;19.60;13.35;;;16.10;99.90;;;;;;5013196;28;20030;-74
2024/03/20 10:41:13;;;;;;;19.70;13.27;;;16.20;99.90;;;;;;5021363;28;20112;-74
2024/03/20 10:43:40;;;;;;;18.63;13.63;;;16.30;99.90;;;;;;5018616;28;20032;-74
2024/03/20 10:46:14;;;;;;;19.08;13.65;;;16.40;99.90;;;;;;5022003;28;20022;-74
2024/03/20 10:48:40;;;;;;;19.17;13.80;;;16.40;99.90;;;;;;5017326;28;20029;-74
2024/03/20 10:51:13;;;;;;;20.33;12.50;;;16.50;99.90;;;;;;5025920;28;20025;-74
2024/03/20 10:53:39;;;;;;;17.48;13.00;;;16.50;99.90;;;;;;5027710;28;20029;-74
2024/03/20 10:56:05;;;;;;;22.85;15.10;;;16.60;99.90;;;;;;5027662;28;20029;-74
2024/03/20 10:58:33;;;;;;;22.13;15.20;;;16.60;99.90;;;;;;5027782;28;20025;-74
2024/03/20 11:01:00;;;;;;;20.60;14.20;;;16.70;99.90;;;;;;5025559;28;20025;-75
2024/03/20 11:03:51;;;;;;;22.08;13.27;;;16.80;99.90;;;;;;5021192;28;20040;-75
2024/03/20 11:06:30;;;;;;;23.77;13.95;;;16.90;99.90;;;;;;5021253;28;20193;-75
2024/03/20 11:09:11;;;;;;;23.70;13.10;;;17.00;99.90;;;;;;5017943;28;20052;-75
2024/03/20 11:11:37;;;;;;;14.25;10.27;;;17.10;99.90;;;;;;5012997;28;20104;-74
2024/03/20 11:14:04;;;;;;;21.25;12.25;;;17.20;99.90;;;;;;5027359;28;20013;-74
2024/03/20 11:16:33;;;;;;;17.63;11.55;;;17.30;99.90;;;;;;5025532;28;20025;-75
2024/03/20 11:19:05;;;;;;;16.05;11.75;;;17.40;99.90;;;;;;5019250;28;20045;-75
2024/03/20 11:21:30;;;;;;;19.05;11.93;;;17.40;99.90;;;;;;5027616;28;20053;-75
2024/03/20 11:23:57;;;;;;;17.90;10.95;;;17.50;99.90;;;;;;5028212;28;20038;-74
2024/03/20 11:26:24;;;;;;;24.63;12.55;;;17.60;99.90;;;;;;5027899;28;20396;-74
2024/03/20 11:28:51;;;;;;;16.52;10.88;;;17.70;99.90;;;;;;5024220;28;20033;-74
2024/03/20 11:31:17;;;;;;;16.50;11.88;;;17.80;99.90;;;;;;5018271;28;20017;-75
2024/03/20 11:33:43;;;;;;;14.63;9.98;;;17.80;99.90;;;;;;5021917;28;20104;-73
2024/03/20 11:36:14;;;;;;;21.10;11.55;;;17.90;99.90;;;;;;5025438;28;20025;-74
2024/03/20 11:38:40;;;;;;;15.98;10.85;;;18.00;99.90;;;;;;5026037;28;20021;-74
2024/03/20 11:41:09;;;;;;;13.68;9.32;;;18.00;99.90;;;;;;5027001;28;20087;-73
2024/03/20 11:43:34;;;;;;;16.38;10.95;;;18.00;99.90;;;;;;5027393;28;20030;-74
2024/03/20 11:46:01;;;;;;;15.70;10.48;;;18.00;99.90;;;;;;5020608;28;20037;-74
2024/03/20 11:48:30;;;;;;;12.98;9.48;;;18.10;99.90;;;;;;5012336;28;20506;-74
2024/03/20 11:50:57;;;;;;;15.48;10.68;;;18.20;99.90;;;;;;5015540;28;20176;-74
2024/03/20 11:53:23;;;;;;;14.85;10.18;;;18.30;99.90;;;;;;5014997;28;20079;-74
2024/03/20 11:55:50;;;;;;;15.43;9.55;;;18.30;99.90;;;;;;5015510;28;20495;-74
2024/03/20 11:58:18;;;;;;;14.90;8.48;;;18.40;99.90;;;;;;5018680;28;20116;-74
2024/03/20 12:00:43;;;;;;;17.23;9.43;;;18.40;99.90;;;;;;5022849;28;20029;-73
2024/03/20 12:03:24;;;;;;;14.32;8.70;;;18.40;99.90;;;;;;5024246;28;20028;-74
2024/03/20 12:06:10;;;;;;;16.15;10.18;;;18.50;99.90;;;;;;5018420;28;20386;-73
2024/03/20 12:08:37;;;;;;;15.50;10.02;;;18.60;99.90;;;;;;5013677;28;20018;-74
2024/03/20 12:11:17;;;;;;;17.05;9.80;;;18.60;99.90;;;;;;5025523;28;20465;-74
2024/03/20 12:13:44;;;;;;;17.17;11.63;;;18.60;99.90;;;;;;5013975;28;20040;-73
2024/03/20 12:16:09;;;;;;;14.05;9.30;;;18.70;99.90;;;;;;5012201;28;20542;-74
2024/03/20 12:18:35;;;;;;;12.75;8.57;;;18.70;99.90;;;;;;5024815;28;20049;-74
2024/03/20 12:21:03;;;;;;;12.82;9.82;;;18.70;99.90;;;;;;5025654;28;20022;-74
2024/03/20 12:23:30;;;;;;;12.32;8.90;;;18.70;99.90;;;;;;5020456;28;20153;-74
2024/03/20 12:25:56;;;;;;;15.90;10.32;;;18.70;99.90;;;;;;5013651;28;20839;-74
2024/03/20 12:28:21;;;;;;;14.65;11.10;;;18.70;99.90;;;;;;5024501;28;20021;-73
2024/03/20 12:30:50;;;;;;;13.77;10.30;;;18.80;99.90;;;;;;5023839;28;20846;-73
2024/03/20 12:33:18;;;;;;;14.13;10.05;;;18.80;99.90;;;;;;5014141;28;20026;-73
2024/03/20 12:35:45;;;;;;;13.60;10.80;;;18.90;99.90;;;;;;5017507;28;20061;-74